createdAt,value
2018-06-09T00:00:05.404Z,5
2018-06-09T00:00:17.805Z,5
2018-06-09T00:00:30.218Z,5
2018-06-09T00:00:42.651Z,5
2018-06-09T00:00:55.317Z,5
2018-06-09T00:01:07.727Z,5
2018-06-09T00:01:20.158Z,5
2018-06-09T00:01:32.552Z,5
2018-06-09T00:01:44.969Z,5
2018-06-09T00:01:57.379Z,5
2018-06-09T00:02:09.779Z,5
2018-06-09T00:02:22.295Z,5
2018-06-09T00:02:34.748Z,5
2018-06-09T00:02:47.848Z,5
2018-06-09T00:03:00.277Z,5
2018-06-09T00:03:12.683Z,5
2018-06-09T00:03:25.090Z,54
2018-06-09T00:03:37.479Z,61
2018-06-09T00:03:49.882Z,59
2018-06-09T00:04:02.288Z,50
2018-06-09T00:04:14.710Z,48
2018-06-09T00:04:27.097Z,49
2018-06-09T00:04:39.491Z,34
2018-06-09T00:04:51.901Z,53
2018-06-09T00:05:04.315Z,53
2018-06-09T00:05:16.711Z,39
2018-06-09T00:05:29.107Z,37
2018-06-09T00:05:41.513Z,37
2018-06-09T00:05:54.115Z,37
2018-06-09T00:06:06.525Z,37
2018-06-09T00:06:18.923Z,37
2018-06-09T00:06:31.346Z,37
2018-06-09T00:06:43.740Z,39
2018-06-09T00:06:56.173Z,39
2018-06-09T00:07:08.668Z,39
2018-06-09T00:07:21.063Z,39
2018-06-09T00:07:33.463Z,39
2018-06-09T00:07:45.850Z,39
2018-06-09T00:07:58.248Z,39
2018-06-09T00:08:10.638Z,39
2018-06-09T00:08:23.063Z,42
2018-06-09T00:08:35.474Z,29
2018-06-09T00:08:47.865Z,28
2018-06-09T00:09:00.287Z,21
2018-06-09T00:09:12.691Z,21
2018-06-09T00:09:25.107Z,21
2018-06-09T00:09:37.501Z,21
2018-06-09T00:09:49.877Z,21
2018-06-09T00:10:02.300Z,53
2018-06-09T00:10:14.715Z,38
2018-06-09T00:10:27.137Z,40
2018-06-09T00:10:39.554Z,74
2018-06-09T00:10:51.975Z,66
2018-06-09T00:11:04.431Z,70
2018-06-09T00:11:16.827Z,42
2018-06-09T00:11:29.226Z,42
2018-06-09T00:11:41.643Z,53
2018-06-09T00:11:54.085Z,53
2018-06-09T00:12:06.481Z,53
2018-06-09T00:12:18.896Z,53
2018-06-09T00:12:31.366Z,53
2018-06-09T00:12:43.738Z,53
2018-06-09T00:12:56.149Z,53
2018-06-09T00:13:08.559Z,53
2018-06-09T00:13:20.958Z,53
2018-06-09T00:13:33.530Z,53
2018-06-09T00:13:45.937Z,53
2018-06-09T00:13:58.349Z,53
2018-06-09T00:14:10.754Z,53
2018-06-09T00:14:23.176Z,53
2018-06-09T00:14:35.581Z,53
2018-06-09T00:14:47.981Z,53
2018-06-09T00:15:00.385Z,53
2018-06-09T00:15:12.793Z,53
2018-06-09T00:15:25.215Z,53
2018-06-09T00:15:37.631Z,53
2018-06-09T00:15:50.034Z,53
2018-06-09T00:16:02.497Z,53
2018-06-09T00:16:14.919Z,53
2018-06-09T00:16:27.352Z,53
2018-06-09T00:16:39.761Z,53
2018-06-09T00:16:52.513Z,53
2018-06-09T00:17:04.916Z,53
2018-06-09T00:17:17.312Z,53
2018-06-09T00:17:29.714Z,53
2018-06-09T00:17:42.127Z,53
2018-06-09T00:17:54.720Z,53
2018-06-09T00:18:07.106Z,53
2018-06-09T00:18:19.543Z,59
2018-06-09T00:18:31.954Z,63
2018-06-09T00:18:44.358Z,59
2018-06-09T00:18:56.737Z,42
2018-06-09T00:19:09.117Z,44
2018-06-09T00:19:21.510Z,45
2018-06-09T00:19:34.208Z,45
2018-06-09T00:19:46.991Z,45
2018-06-09T00:19:59.399Z,45
2018-06-09T00:20:11.857Z,45
2018-06-09T00:20:24.271Z,45
2018-06-09T00:20:36.664Z,45
2018-06-09T00:20:49.071Z,43
2018-06-09T00:21:01.471Z,43
2018-06-09T00:21:13.877Z,44
2018-06-09T00:21:26.285Z,38
2018-06-09T00:21:38.699Z,41
2018-06-09T00:21:51.203Z,41
2018-06-09T00:22:03.602Z,41
2018-06-09T00:22:16.005Z,58
2018-06-09T00:22:28.395Z,58
2018-06-09T00:22:40.828Z,71
2018-06-09T00:22:53.235Z,57
2018-06-09T00:23:05.651Z,75
2018-06-09T00:23:18.057Z,84
2018-06-09T00:23:30.450Z,74
2018-06-09T00:23:42.855Z,71
2018-06-09T00:23:55.389Z,67
2018-06-09T00:24:07.793Z,67
2018-06-09T00:24:20.289Z,55
2018-06-09T00:24:32.716Z,55
2018-06-09T00:24:45.127Z,55
2018-06-09T00:24:57.533Z,55
2018-06-09T00:25:09.928Z,55
2018-06-09T00:25:22.339Z,55
2018-06-09T00:25:34.740Z,55
2018-06-09T00:25:47.152Z,46
2018-06-09T00:25:59.557Z,46
2018-06-09T00:26:11.982Z,48
2018-06-09T00:26:24.432Z,48
2018-06-09T00:26:36.896Z,49
2018-06-09T00:26:49.311Z,74
2018-06-09T00:27:01.733Z,52
2018-06-09T00:27:14.137Z,52
2018-06-09T00:27:26.544Z,52
2018-06-09T00:27:39.032Z,50
2018-06-09T00:27:51.449Z,49
2018-06-09T00:28:03.909Z,49
2018-06-09T00:28:16.312Z,49
2018-06-09T00:28:28.753Z,49
2018-06-09T00:28:41.163Z,130
2018-06-09T00:28:53.583Z,82
2018-06-09T00:29:06.032Z,82
2018-06-09T00:29:18.676Z,62
2018-06-09T00:29:31.091Z,35
2018-06-09T00:29:43.492Z,35
2018-06-09T00:29:55.898Z,35
2018-06-09T00:30:08.336Z,35
2018-06-09T00:30:20.726Z,40
2018-06-09T00:30:33.129Z,28
2018-06-09T00:30:45.547Z,61
2018-06-09T00:30:57.953Z,53
2018-06-09T00:31:10.383Z,41
2018-06-09T00:31:22.781Z,34
2018-06-09T00:31:35.224Z,53
2018-06-09T00:31:47.627Z,5
2018-06-09T00:32:00.035Z,18
2018-06-09T00:32:12.447Z,18
2018-06-09T00:32:24.869Z,18
2018-06-09T00:32:37.289Z,18
2018-06-09T00:32:49.668Z,18
2018-06-09T00:33:02.088Z,18
2018-06-09T00:33:14.493Z,18
2018-06-09T00:33:26.919Z,19
2018-06-09T00:33:39.344Z,45
2018-06-09T00:33:51.758Z,46
2018-06-09T00:34:04.200Z,22
2018-06-09T00:34:16.629Z,29
2018-06-09T00:34:29.039Z,30
2018-06-09T00:34:41.475Z,30
2018-06-09T00:34:53.897Z,30
2018-06-09T00:35:06.295Z,34
2018-06-09T00:35:18.689Z,34
2018-06-09T00:35:31.119Z,34
2018-06-09T00:35:43.519Z,34
2018-06-09T00:35:56.462Z,35
2018-06-09T00:36:08.911Z,53
2018-06-09T00:36:21.311Z,53
2018-06-09T00:36:33.717Z,53
2018-06-09T00:36:46.126Z,53
2018-06-09T00:36:58.504Z,53
2018-06-09T00:37:10.922Z,53
2018-06-09T00:37:23.325Z,59
2018-06-09T00:37:35.741Z,61
2018-06-09T00:37:48.189Z,44
2018-06-09T00:38:00.588Z,44
2018-06-09T00:38:13.015Z,44
2018-06-09T00:38:25.476Z,87
2018-06-09T00:38:37.861Z,78
2018-06-09T00:38:50.252Z,78
2018-06-09T00:39:02.658Z,78
2018-06-09T00:39:15.067Z,71
2018-06-09T00:39:27.506Z,71
2018-06-09T00:39:39.913Z,71
2018-06-09T00:39:52.318Z,71
2018-06-09T00:40:04.729Z,71
2018-06-09T00:40:17.143Z,71
2018-06-09T00:40:29.523Z,71
2018-06-09T00:40:41.949Z,71
2018-06-09T00:40:54.346Z,71
2018-06-09T00:41:06.750Z,71
2018-06-09T00:41:19.154Z,350
2018-06-09T00:41:31.550Z,55
2018-06-09T00:41:43.947Z,49
2018-06-09T00:41:56.373Z,49
2018-06-09T00:42:08.776Z,49
2018-06-09T00:42:21.174Z,49
2018-06-09T00:42:33.574Z,49
2018-06-09T00:42:45.984Z,49
2018-06-09T00:42:58.381Z,49
2018-06-09T00:43:10.785Z,49
2018-06-09T00:43:23.189Z,49
2018-06-09T00:43:35.596Z,49
2018-06-09T00:43:48.013Z,49
2018-06-09T00:44:00.416Z,49
2018-06-09T00:44:12.820Z,49
2018-06-09T00:44:25.347Z,49
2018-06-09T00:44:37.756Z,11
2018-06-09T00:44:50.154Z,17
2018-06-09T00:45:02.609Z,19
2018-06-09T00:45:15.026Z,30
2018-06-09T00:45:27.410Z,32
2018-06-09T00:45:39.804Z,60
2018-06-09T00:45:52.197Z,73
2018-06-09T00:46:04.760Z,73
2018-06-09T00:46:17.161Z,73
2018-06-09T00:46:29.576Z,134
2018-06-09T00:46:41.968Z,104
2018-06-09T00:46:54.394Z,88
2018-06-09T00:47:06.808Z,90
2018-06-09T00:47:19.263Z,89
2018-06-09T00:47:31.761Z,89
2018-06-09T00:47:44.160Z,90
2018-06-09T00:47:56.570Z,89
2018-06-09T00:48:08.957Z,90
2018-06-09T00:48:21.353Z,90
2018-06-09T00:48:34.038Z,90
2018-06-09T00:48:46.478Z,90
2018-06-09T00:48:58.874Z,90
2018-06-09T00:49:11.283Z,90
2018-06-09T00:49:23.681Z,90
2018-06-09T00:49:36.155Z,90
2018-06-09T00:49:48.557Z,90
2018-06-09T00:50:00.946Z,90
2018-06-09T00:50:13.554Z,90
2018-06-09T00:50:26.257Z,90
2018-06-09T00:50:38.649Z,98
2018-06-09T00:50:51.052Z,98
2018-06-09T00:51:03.472Z,98
2018-06-09T00:51:16.066Z,98
2018-06-09T00:51:28.497Z,98
2018-06-09T00:51:41.149Z,98
2018-06-09T00:51:53.555Z,98
2018-06-09T00:52:05.949Z,98
2018-06-09T00:52:18.339Z,98
2018-06-09T00:52:30.749Z,98
2018-06-09T00:52:43.154Z,71
2018-06-09T00:52:55.561Z,71
2018-06-09T00:53:07.982Z,61
2018-06-09T00:53:20.409Z,61
2018-06-09T00:53:32.839Z,59
2018-06-09T00:53:45.242Z,59
2018-06-09T00:53:57.651Z,60
2018-06-09T00:54:10.059Z,60
2018-06-09T00:54:22.453Z,60
2018-06-09T00:54:34.859Z,60
2018-06-09T00:54:47.282Z,60
2018-06-09T00:54:59.708Z,60
2018-06-09T00:55:12.113Z,60
2018-06-09T00:55:24.508Z,60
2018-06-09T00:55:36.912Z,60
2018-06-09T00:55:49.333Z,60
2018-06-09T00:56:01.734Z,60
2018-06-09T00:56:14.145Z,60
2018-06-09T00:56:26.555Z,57
2018-06-09T00:56:39.071Z,57
2018-06-09T00:56:51.477Z,50
2018-06-09T00:57:03.876Z,52
2018-06-09T00:57:16.296Z,51
2018-06-09T00:57:28.690Z,52
2018-06-09T00:57:41.087Z,52
2018-06-09T00:57:53.516Z,52
2018-06-09T00:58:05.915Z,52
2018-06-09T00:58:18.295Z,52
2018-06-09T00:58:30.716Z,52
2018-06-09T00:58:43.116Z,52
2018-06-09T00:58:55.535Z,52
2018-06-09T00:59:07.963Z,52
2018-06-09T00:59:20.411Z,52
2018-06-09T00:59:32.832Z,52
2018-06-09T00:59:45.249Z,52
2018-06-09T00:59:57.707Z,52
2018-06-09T01:00:10.127Z,52
2018-06-09T01:00:22.555Z,52
2018-06-09T01:00:34.972Z,52
2018-06-09T01:00:47.544Z,52
2018-06-09T01:00:59.966Z,52
2018-06-09T01:01:12.376Z,52
2018-06-09T01:01:24.831Z,52
2018-06-09T01:01:37.247Z,52
2018-06-09T01:01:49.693Z,52
2018-06-09T01:02:02.129Z,52
2018-06-09T01:02:14.556Z,52
2018-06-09T01:02:27.110Z,52
2018-06-09T01:02:39.655Z,52
2018-06-09T01:02:52.059Z,52
2018-06-09T01:03:04.521Z,52
2018-06-09T01:03:16.910Z,52
2018-06-09T01:03:29.312Z,52
2018-06-09T01:03:41.707Z,52
2018-06-09T01:03:54.093Z,52
2018-06-09T01:04:06.516Z,44
2018-06-09T01:04:18.923Z,42
2018-06-09T01:04:31.318Z,42
2018-06-09T01:04:43.714Z,42
2018-06-09T01:04:56.113Z,42
2018-06-09T01:05:08.542Z,42
2018-06-09T01:05:20.976Z,42
2018-06-09T01:05:33.406Z,42
2018-06-09T01:05:45.787Z,42
2018-06-09T01:05:58.178Z,42
2018-06-09T01:06:10.578Z,42
2018-06-09T01:06:22.975Z,42
2018-06-09T01:06:35.377Z,42
2018-06-09T01:06:47.772Z,42
2018-06-09T01:07:00.191Z,42
2018-06-09T01:07:12.614Z,42
2018-06-09T01:07:25.030Z,42
2018-06-09T01:07:37.432Z,42
2018-06-09T01:07:49.866Z,42
2018-06-09T01:08:02.317Z,42
2018-06-09T01:08:14.749Z,42
2018-06-09T01:08:27.134Z,42
2018-06-09T01:08:39.537Z,42
2018-06-09T01:08:51.928Z,42
2018-06-09T01:09:04.335Z,42
2018-06-09T01:09:16.736Z,42
2018-06-09T01:09:29.137Z,42
2018-06-09T01:09:41.551Z,42
2018-06-09T01:09:53.963Z,42
2018-06-09T01:10:06.348Z,42
2018-06-09T01:10:18.729Z,42
2018-06-09T01:10:31.147Z,42
2018-06-09T01:10:43.536Z,42
2018-06-09T01:10:55.945Z,42
2018-06-09T01:11:08.379Z,42
2018-06-09T01:11:20.766Z,42
2018-06-09T01:11:33.170Z,42
2018-06-09T01:11:45.631Z,42
2018-06-09T01:11:58.061Z,42
2018-06-09T01:12:10.469Z,42
2018-06-09T01:12:22.861Z,42
2018-06-09T01:12:35.288Z,42
2018-06-09T01:12:47.766Z,42
2018-06-09T01:13:00.168Z,42
2018-06-09T01:13:12.581Z,42
2018-06-09T01:13:24.988Z,42
2018-06-09T01:13:37.378Z,42
2018-06-09T01:13:49.767Z,42
2018-06-09T01:14:02.263Z,42
2018-06-09T01:14:14.686Z,42
2018-06-09T01:14:27.115Z,42
2018-06-09T01:14:39.527Z,42
2018-06-09T01:14:51.949Z,42
2018-06-09T01:15:04.323Z,42
2018-06-09T01:15:16.716Z,42
2018-06-09T01:15:29.128Z,42
2018-06-09T01:15:41.520Z,42
2018-06-09T01:15:53.914Z,42
2018-06-09T01:16:06.351Z,42
2018-06-09T01:16:18.771Z,42
2018-06-09T01:16:31.190Z,42
2018-06-09T01:16:43.611Z,42
2018-06-09T01:16:56.335Z,42
2018-06-09T01:17:08.736Z,42
2018-06-09T01:17:21.125Z,42
2018-06-09T01:17:33.538Z,42
2018-06-09T01:17:46.075Z,42
2018-06-09T01:17:58.472Z,42
2018-06-09T01:18:10.880Z,42
2018-06-09T01:18:23.473Z,42
2018-06-09T01:18:35.942Z,42
2018-06-09T01:18:48.359Z,42
2018-06-09T01:19:00.787Z,42
2018-06-09T01:19:13.237Z,42
2018-06-09T01:19:25.649Z,42
2018-06-09T01:19:38.072Z,42
2018-06-09T01:19:50.490Z,42
2018-06-09T01:20:02.878Z,42
2018-06-09T01:20:15.295Z,42
2018-06-09T01:20:27.717Z,42
2018-06-09T01:20:40.149Z,42
2018-06-09T01:20:52.543Z,42
2018-06-09T01:21:04.934Z,42
2018-06-09T01:21:17.361Z,42
2018-06-09T01:21:29.788Z,42
2018-06-09T01:21:42.210Z,42
2018-06-09T01:21:54.620Z,42
2018-06-09T01:22:07.029Z,42
2018-06-09T01:22:19.448Z,42
2018-06-09T01:22:31.863Z,42
2018-06-09T01:22:44.247Z,42
2018-06-09T01:22:56.716Z,42
2018-06-09T01:23:09.143Z,42
2018-06-09T01:23:21.594Z,42
2018-06-09T01:23:34.006Z,42
2018-06-09T01:23:46.422Z,42
2018-06-09T01:23:59.086Z,42
2018-06-09T01:24:11.514Z,42
2018-06-09T01:24:23.945Z,42
2018-06-09T01:24:36.353Z,42
2018-06-09T01:24:48.753Z,42
2018-06-09T01:25:01.176Z,42
2018-06-09T01:25:13.572Z,42
2018-06-09T01:25:25.960Z,42
2018-06-09T01:25:38.377Z,42
2018-06-09T01:25:50.773Z,42
2018-06-09T01:26:03.176Z,42
2018-06-09T01:26:15.605Z,42
2018-06-09T01:26:28.046Z,42
2018-06-09T01:26:40.454Z,42
2018-06-09T01:26:52.871Z,42
2018-06-09T01:27:05.282Z,42
2018-06-09T01:27:17.694Z,42
2018-06-09T01:27:30.073Z,42
2018-06-09T01:27:42.515Z,42
2018-06-09T01:27:54.969Z,42
2018-06-09T01:28:07.444Z,42
2018-06-09T01:28:19.847Z,42
2018-06-09T01:28:32.263Z,42
2018-06-09T01:28:44.700Z,42
2018-06-09T01:28:57.119Z,42
2018-06-09T01:29:09.595Z,42
2018-06-09T01:29:21.964Z,42
2018-06-09T01:29:34.370Z,42
2018-06-09T01:29:46.811Z,42
2018-06-09T01:29:59.214Z,42
2018-06-09T01:30:11.613Z,42
2018-06-09T01:30:24.025Z,42
2018-06-09T01:30:36.428Z,42
2018-06-09T01:30:48.859Z,42
2018-06-09T01:31:01.252Z,42
2018-06-09T01:31:13.666Z,42
2018-06-09T01:31:26.062Z,42
2018-06-09T01:31:38.460Z,42
2018-06-09T01:31:50.854Z,42
2018-06-09T01:32:03.248Z,42
2018-06-09T01:32:15.650Z,42
2018-06-09T01:32:28.052Z,42
2018-06-09T01:32:40.441Z,42
2018-06-09T01:32:52.922Z,42
2018-06-09T01:33:05.368Z,42
2018-06-09T01:33:17.770Z,42
2018-06-09T01:33:30.179Z,42
2018-06-09T01:33:42.572Z,42
2018-06-09T01:33:54.987Z,42
2018-06-09T01:34:07.388Z,42
2018-06-09T01:34:19.803Z,42
2018-06-09T01:34:32.239Z,42
2018-06-09T01:34:44.656Z,42
2018-06-09T01:34:57.055Z,42
2018-06-09T01:35:09.470Z,42
2018-06-09T01:35:21.970Z,42
2018-06-09T01:35:34.375Z,42
2018-06-09T01:35:46.929Z,42
2018-06-09T01:35:59.339Z,42
2018-06-09T01:36:11.760Z,42
2018-06-09T01:36:24.164Z,42
2018-06-09T01:36:36.566Z,42
2018-06-09T01:36:48.990Z,42
2018-06-09T01:37:01.385Z,42
2018-06-09T01:37:13.801Z,42
2018-06-09T01:37:26.254Z,42
2018-06-09T01:37:38.664Z,42
2018-06-09T01:37:51.046Z,42
2018-06-09T01:38:03.486Z,42
2018-06-09T01:38:15.881Z,42
2018-06-09T01:38:28.345Z,42
2018-06-09T01:38:40.753Z,42
2018-06-09T01:38:53.157Z,42
2018-06-09T01:39:05.551Z,42
2018-06-09T01:39:17.963Z,42
2018-06-09T01:39:30.364Z,42
2018-06-09T01:39:42.786Z,42
2018-06-09T01:39:55.203Z,42
2018-06-09T01:40:07.612Z,42
2018-06-09T01:40:20.035Z,42
2018-06-09T01:40:32.442Z,42
2018-06-09T01:40:44.894Z,42
2018-06-09T01:40:57.287Z,42
2018-06-09T01:41:09.684Z,42
2018-06-09T01:41:22.097Z,42
2018-06-09T01:41:34.523Z,42
2018-06-09T01:41:46.924Z,42
2018-06-09T01:41:59.322Z,42
2018-06-09T01:42:11.755Z,42
2018-06-09T01:42:24.176Z,21
2018-06-09T01:42:36.568Z,33
2018-06-09T01:42:48.983Z,69
2018-06-09T01:43:01.432Z,51
2018-06-09T01:43:13.838Z,51
2018-06-09T01:43:26.256Z,52
2018-06-09T01:43:38.658Z,52
2018-06-09T01:43:51.053Z,52
2018-06-09T01:44:03.496Z,52
2018-06-09T01:44:15.890Z,52
2018-06-09T01:44:28.307Z,52
2018-06-09T01:44:40.711Z,52
2018-06-09T01:44:53.192Z,52
2018-06-09T01:45:05.602Z,52
2018-06-09T01:45:17.990Z,52
2018-06-09T01:45:30.375Z,52
2018-06-09T01:45:42.761Z,52
2018-06-09T01:45:55.228Z,52
2018-06-09T01:46:07.834Z,52
2018-06-09T01:46:20.238Z,52
2018-06-09T01:46:32.625Z,52
2018-06-09T01:46:45.024Z,47
2018-06-09T01:46:57.447Z,51
2018-06-09T01:47:09.845Z,51
2018-06-09T01:47:22.278Z,51
2018-06-09T01:47:34.662Z,51
2018-06-09T01:47:47.091Z,51
2018-06-09T01:47:59.511Z,51
2018-06-09T01:48:11.916Z,49
2018-06-09T01:48:24.322Z,46
2018-06-09T01:48:36.868Z,46
2018-06-09T01:48:49.276Z,46
2018-06-09T01:49:01.709Z,46
2018-06-09T01:49:14.132Z,46
2018-06-09T01:49:26.548Z,46
2018-06-09T01:49:39.031Z,46
2018-06-09T01:49:51.445Z,46
2018-06-09T01:50:03.868Z,46
2018-06-09T01:50:16.284Z,46
2018-06-09T01:50:28.684Z,46
2018-06-09T01:50:41.076Z,46
2018-06-09T01:50:53.478Z,46
2018-06-09T01:51:05.872Z,46
2018-06-09T01:51:18.446Z,46
2018-06-09T01:51:30.861Z,46
2018-06-09T01:51:43.876Z,46
2018-06-09T01:51:56.298Z,46
2018-06-09T01:52:08.692Z,46
2018-06-09T01:52:21.102Z,49
2018-06-09T01:52:33.518Z,49
2018-06-09T01:52:45.907Z,49
2018-06-09T01:52:58.312Z,88
2018-06-09T01:53:10.743Z,88
2018-06-09T01:53:23.184Z,88
2018-06-09T01:53:35.576Z,88
2018-06-09T01:53:47.967Z,88
2018-06-09T01:54:00.406Z,88
2018-06-09T01:54:12.828Z,88
2018-06-09T01:54:25.223Z,88
2018-06-09T01:54:37.608Z,88
2018-06-09T01:54:50.026Z,88
2018-06-09T01:55:02.435Z,88
2018-06-09T01:55:14.824Z,88
2018-06-09T01:55:27.217Z,88
2018-06-09T01:55:39.617Z,88
2018-06-09T01:55:51.996Z,87
2018-06-09T01:56:04.403Z,87
2018-06-09T01:56:16.838Z,87
2018-06-09T01:56:29.252Z,87
2018-06-09T01:56:41.650Z,87
2018-06-09T01:56:54.072Z,87
2018-06-09T01:57:06.478Z,87
2018-06-09T01:57:18.876Z,87
2018-06-09T01:57:31.323Z,87
2018-06-09T01:57:43.745Z,87
2018-06-09T01:57:56.151Z,53
2018-06-09T01:58:08.563Z,53
2018-06-09T01:58:20.971Z,53
2018-06-09T01:58:33.398Z,53
2018-06-09T01:58:45.783Z,53
2018-06-09T01:58:58.178Z,53
2018-06-09T01:59:10.571Z,53
2018-06-09T01:59:22.974Z,53
2018-06-09T01:59:35.370Z,53
2018-06-09T01:59:47.790Z,53
2018-06-09T02:00:00.186Z,49
2018-06-09T02:00:12.595Z,49
2018-06-09T02:00:25.026Z,49
2018-06-09T02:00:37.436Z,49
2018-06-09T02:00:50.003Z,46
2018-06-09T02:01:02.424Z,48
2018-06-09T02:01:14.846Z,48
2018-06-09T02:01:27.270Z,48
2018-06-09T02:01:39.681Z,48
2018-06-09T02:01:52.127Z,48
2018-06-09T02:02:04.555Z,48
2018-06-09T02:02:16.981Z,48
2018-06-09T02:02:29.522Z,48
2018-06-09T02:02:42.009Z,49
2018-06-09T02:02:54.408Z,48
2018-06-09T02:03:06.806Z,49
2018-06-09T02:03:19.191Z,88
2018-06-09T02:03:31.585Z,87
2018-06-09T02:03:43.960Z,87
2018-06-09T02:03:56.375Z,87
2018-06-09T02:04:08.776Z,87
2018-06-09T02:04:21.176Z,86
2018-06-09T02:04:33.564Z,86
2018-06-09T02:04:45.981Z,86
2018-06-09T02:04:58.386Z,86
2018-06-09T02:05:10.890Z,86
2018-06-09T02:05:23.333Z,86
2018-06-09T02:05:35.745Z,86
2018-06-09T02:05:48.159Z,86
2018-06-09T02:06:00.553Z,86
2018-06-09T02:06:12.989Z,86
2018-06-09T02:06:25.389Z,86
2018-06-09T02:06:37.815Z,86
2018-06-09T02:06:50.218Z,78
2018-06-09T02:07:02.635Z,78
2018-06-09T02:07:15.037Z,78
2018-06-09T02:07:27.429Z,78
2018-06-09T02:07:39.889Z,78
2018-06-09T02:07:52.330Z,75
2018-06-09T02:08:04.719Z,48
2018-06-09T02:08:17.143Z,51
2018-06-09T02:08:29.548Z,51
2018-06-09T02:08:41.939Z,53
2018-06-09T02:08:54.363Z,53
2018-06-09T02:09:06.803Z,53
2018-06-09T02:09:19.196Z,53
2018-06-09T02:09:31.621Z,53
2018-06-09T02:09:44.018Z,53
2018-06-09T02:09:56.417Z,53
2018-06-09T02:10:08.816Z,53
2018-06-09T02:10:21.225Z,53
2018-06-09T02:10:33.606Z,53
2018-06-09T02:10:46.024Z,53
2018-06-09T02:10:58.440Z,53
2018-06-09T02:11:10.833Z,53
2018-06-09T02:11:23.245Z,53
2018-06-09T02:11:35.646Z,63
2018-06-09T02:11:48.042Z,59
2018-06-09T02:12:00.428Z,59
2018-06-09T02:12:12.837Z,59
2018-06-09T02:12:25.280Z,59
2018-06-09T02:12:37.686Z,59
2018-06-09T02:12:50.104Z,59
2018-06-09T02:13:02.512Z,59
2018-06-09T02:13:14.907Z,59
2018-06-09T02:13:27.297Z,59
2018-06-09T02:13:39.694Z,59
2018-06-09T02:13:52.098Z,59
2018-06-09T02:14:04.513Z,59
2018-06-09T02:14:16.930Z,59
2018-06-09T02:14:29.348Z,59
2018-06-09T02:14:41.898Z,59
2018-06-09T02:14:54.297Z,59
2018-06-09T02:15:06.688Z,59
2018-06-09T02:15:19.069Z,59
2018-06-09T02:15:31.464Z,59
2018-06-09T02:15:43.857Z,61
2018-06-09T02:15:56.275Z,61
2018-06-09T02:16:08.685Z,61
2018-06-09T02:16:21.102Z,61
2018-06-09T02:16:33.507Z,61
2018-06-09T02:16:45.940Z,61
2018-06-09T02:16:58.563Z,61
2018-06-09T02:17:10.965Z,61
2018-06-09T02:17:23.362Z,61
2018-06-09T02:17:35.778Z,61
2018-06-09T02:17:48.376Z,61
2018-06-09T02:18:00.787Z,61
2018-06-09T02:18:13.195Z,61
2018-06-09T02:18:25.575Z,61
2018-06-09T02:18:38.006Z,61
2018-06-09T02:18:50.408Z,61
2018-06-09T02:19:02.801Z,61
2018-06-09T02:19:15.184Z,61
2018-06-09T02:19:27.574Z,61
2018-06-09T02:19:39.981Z,61
2018-06-09T02:19:52.559Z,61
2018-06-09T02:20:04.950Z,61
2018-06-09T02:20:17.351Z,61
2018-06-09T02:20:29.739Z,61
2018-06-09T02:20:42.142Z,61
2018-06-09T02:20:54.547Z,61
2018-06-09T02:21:06.929Z,61
2018-06-09T02:21:19.316Z,61
2018-06-09T02:21:31.734Z,61
2018-06-09T02:21:44.122Z,61
2018-06-09T02:21:56.526Z,61
2018-06-09T02:22:08.961Z,61
2018-06-09T02:22:21.373Z,61
2018-06-09T02:22:33.780Z,61
2018-06-09T02:22:46.231Z,61
2018-06-09T02:22:58.631Z,61
2018-06-09T02:23:11.026Z,61
2018-06-09T02:23:23.414Z,61
2018-06-09T02:23:35.856Z,61
2018-06-09T02:23:48.273Z,61
2018-06-09T02:24:00.665Z,61
2018-06-09T02:24:13.086Z,61
2018-06-09T02:24:25.502Z,61
2018-06-09T02:24:37.913Z,61
2018-06-09T02:24:50.499Z,61
2018-06-09T02:25:02.896Z,61
2018-06-09T02:25:15.282Z,61
2018-06-09T02:25:27.687Z,61
2018-06-09T02:25:40.088Z,61
2018-06-09T02:25:52.499Z,61
2018-06-09T02:26:04.923Z,61
2018-06-09T02:26:17.348Z,61
2018-06-09T02:26:29.746Z,61
2018-06-09T02:26:42.137Z,61
2018-06-09T02:26:54.544Z,61
2018-06-09T02:27:06.963Z,61
2018-06-09T02:27:19.356Z,61
2018-06-09T02:27:31.753Z,61
2018-06-09T02:27:44.210Z,61
2018-06-09T02:27:56.625Z,61
2018-06-09T02:28:09.035Z,61
2018-06-09T02:28:21.470Z,61
2018-06-09T02:28:33.889Z,61
2018-06-09T02:28:46.298Z,61
2018-06-09T02:28:58.694Z,61
2018-06-09T02:29:11.143Z,63
2018-06-09T02:29:23.543Z,63
2018-06-09T02:29:35.982Z,63
2018-06-09T02:29:48.417Z,65
2018-06-09T02:30:00.818Z,65
2018-06-09T02:30:13.308Z,64
2018-06-09T02:30:25.719Z,64
2018-06-09T02:30:38.164Z,64
2018-06-09T02:30:50.654Z,64
2018-06-09T02:31:03.133Z,64
2018-06-09T02:31:15.589Z,64
2018-06-09T02:31:28.042Z,64
2018-06-09T02:31:40.472Z,64
2018-06-09T02:31:52.964Z,64
2018-06-09T02:32:05.380Z,64
2018-06-09T02:32:17.852Z,64
2018-06-09T02:32:30.267Z,64
2018-06-09T02:32:42.694Z,64
2018-06-09T02:32:55.135Z,64
2018-06-09T02:33:07.591Z,64
2018-06-09T02:33:20.009Z,64
2018-06-09T02:33:32.425Z,64
2018-06-09T02:33:44.876Z,64
2018-06-09T02:33:57.304Z,64
2018-06-09T02:34:09.763Z,64
2018-06-09T02:34:22.197Z,64
2018-06-09T02:34:34.714Z,64
2018-06-09T02:34:47.218Z,64
2018-06-09T02:34:59.637Z,64
2018-06-09T02:35:12.073Z,64
2018-06-09T02:35:24.491Z,64
2018-06-09T02:35:36.948Z,64
2018-06-09T02:35:49.401Z,64
2018-06-09T02:36:01.912Z,64
2018-06-09T02:36:14.356Z,64
2018-06-09T02:36:26.789Z,64
2018-06-09T02:36:39.201Z,64
2018-06-09T02:36:51.693Z,65
2018-06-09T02:37:04.170Z,86
2018-06-09T02:37:16.610Z,107
2018-06-09T02:37:29.047Z,85
2018-06-09T02:37:41.475Z,54
2018-06-09T02:37:53.924Z,54
2018-06-09T02:38:06.346Z,53
2018-06-09T02:38:18.758Z,53
2018-06-09T02:38:31.175Z,34
2018-06-09T02:38:43.593Z,51
2018-06-09T02:38:56.002Z,51
2018-06-09T02:39:08.422Z,51
2018-06-09T02:39:20.830Z,68
2018-06-09T02:39:33.326Z,101
2018-06-09T02:39:45.740Z,101
2018-06-09T02:39:58.142Z,63
2018-06-09T02:40:10.594Z,63
2018-06-09T02:40:23.072Z,63
2018-06-09T02:40:35.497Z,63
2018-06-09T02:40:47.929Z,63
2018-06-09T02:41:00.386Z,63
2018-06-09T02:41:12.831Z,63
2018-06-09T02:41:25.239Z,63
2018-06-09T02:41:37.724Z,89
2018-06-09T02:41:50.133Z,110
2018-06-09T02:42:02.571Z,107
2018-06-09T02:42:15.006Z,107
2018-06-09T02:42:27.461Z,103
2018-06-09T02:42:39.873Z,94
2018-06-09T02:42:52.297Z,88
2018-06-09T02:43:04.706Z,84
2018-06-09T02:43:17.147Z,93
2018-06-09T02:43:29.578Z,93
2018-06-09T02:43:41.992Z,93
2018-06-09T02:43:54.449Z,93
2018-06-09T02:44:06.869Z,93
2018-06-09T02:44:19.358Z,93
2018-06-09T02:44:31.784Z,93
2018-06-09T02:44:44.219Z,93
2018-06-09T02:44:56.624Z,93
2018-06-09T02:45:09.067Z,93
2018-06-09T02:45:21.530Z,93
2018-06-09T02:45:33.965Z,93
2018-06-09T02:45:46.432Z,67
2018-06-09T02:45:58.991Z,66
2018-06-09T02:46:11.409Z,66
2018-06-09T02:46:23.893Z,66
2018-06-09T02:46:36.352Z,66
2018-06-09T02:46:48.777Z,66
2018-06-09T02:47:01.208Z,66
2018-06-09T02:47:13.634Z,84
2018-06-09T02:47:26.072Z,78
2018-06-09T02:47:38.541Z,78
2018-06-09T02:47:51.015Z,78
2018-06-09T02:48:03.458Z,78
2018-06-09T02:48:15.900Z,78
2018-06-09T02:48:28.396Z,78
2018-06-09T02:48:40.818Z,78
2018-06-09T02:48:53.223Z,78
2018-06-09T02:49:05.668Z,78
2018-06-09T02:49:18.097Z,78
2018-06-09T02:49:30.544Z,78
2018-06-09T02:49:42.970Z,78
2018-06-09T02:49:55.399Z,78
2018-06-09T02:50:07.951Z,78
2018-06-09T02:50:20.373Z,40
2018-06-09T02:50:32.789Z,40
2018-06-09T02:50:45.290Z,40
2018-06-09T02:50:57.783Z,44
2018-06-09T02:51:10.212Z,88
2018-06-09T02:51:22.888Z,67
2018-06-09T02:51:35.527Z,59
2018-06-09T02:51:47.953Z,65
2018-06-09T02:52:00.362Z,66
2018-06-09T02:52:12.791Z,86
2018-06-09T02:52:25.218Z,109
2018-06-09T02:52:37.643Z,123
2018-06-09T02:52:50.071Z,30
2018-06-09T02:53:02.522Z,26
2018-06-09T02:53:14.925Z,26
2018-06-09T02:53:27.368Z,26
2018-06-09T02:53:39.781Z,56
2018-06-09T02:53:52.184Z,55
2018-06-09T02:54:04.615Z,55
2018-06-09T02:54:17.035Z,55
2018-06-09T02:54:29.487Z,55
2018-06-09T02:54:41.901Z,55
2018-06-09T02:54:54.313Z,44
2018-06-09T02:55:06.755Z,59
2018-06-09T02:55:19.206Z,88
2018-06-09T02:55:31.622Z,88
2018-06-09T02:55:44.046Z,109
2018-06-09T02:55:56.478Z,109
2018-06-09T02:56:08.899Z,90
2018-06-09T02:56:21.387Z,50
2018-06-09T02:56:33.823Z,49
2018-06-09T02:56:46.257Z,64
2018-06-09T02:56:58.683Z,64
2018-06-09T02:57:11.095Z,64